createdAt,value
2023-04-02T00:02:20.572Z,93.53
2023-04-02T00:05:18.130Z,93.76
2023-04-02T00:07:53.420Z,93.60
2023-04-02T00:10:35.118Z,93.90
2023-04-02T00:13:09.644Z,93.51
2023-04-02T00:15:38.819Z,93.09
2023-04-02T00:18:06.799Z,93.51
2023-04-02T00:20:38.683Z,93.72
2023-04-02T00:23:06.392Z,93.80
2023-04-02T00:25:43.246Z,93.50
2023-04-02T00:28:15.774Z,93.24
2023-04-02T00:31:01.688Z,93.10
2023-04-02T00:33:31.686Z,94.14
2023-04-02T00:35:58.917Z,93.87
2023-04-02T00:38:33.289Z,94.05
2023-04-02T00:41:04.201Z,94.09
2023-04-02T00:43:35.907Z,93.62
2023-04-02T00:46:14.858Z,93.59
2023-04-02T00:49:29.947Z,93.91
2023-04-02T00:52:01.853Z,93.87
2023-04-02T00:54:37.420Z,94.29
2023-04-02T00:57:04.765Z,94.52
2023-04-02T00:59:49.058Z,94.49
2023-04-02T01:02:19.015Z,94.60
2023-04-02T01:05:02.780Z,94.90
2023-04-02T01:07:39.221Z,95.18
2023-04-02T01:10:29.857Z,94.76
2023-04-02T01:13:12.195Z,95.14
2023-04-02T01:15:49.254Z,94.64
2023-04-02T01:18:26.827Z,94.51
2023-04-02T01:21:14.805Z,94.65
2023-04-02T01:23:57.188Z,94.86
2023-04-02T01:26:34.341Z,95.11
2023-04-02T01:29:14.718Z,95.47
2023-04-02T01:31:44.422Z,95.72
2023-04-02T01:34:16.002Z,95.83
2023-04-02T01:37:11.658Z,95.62
2023-04-02T01:40:00.777Z,96.03
2023-04-02T01:42:33.730Z,95.73
2023-04-02T01:45:03.882Z,95.75
2023-04-02T01:47:33.186Z,95.94
2023-04-02T01:50:24.656Z,96.01
2023-04-02T01:52:55.575Z,96.42
2023-04-02T01:55:48.889Z,96.68
2023-04-02T01:58:24.150Z,97.16
2023-04-02T02:01:01.516Z,97.08
2023-04-02T02:03:30.414Z,97.00
2023-04-02T02:05:58.581Z,97.21
2023-04-02T02:08:28.544Z,97.63
2023-04-02T02:10:57.243Z,98.11
2023-04-02T02:13:24.390Z,98.11
2023-04-02T02:15:51.834Z,98.32
2023-04-02T02:18:23.560Z,98.22
2023-04-02T02:20:52.692Z,98.21
2023-04-02T02:23:21.198Z,98.44
2023-04-02T02:25:48.611Z,98.33
2023-04-02T02:28:26.034Z,98.18
2023-04-02T02:30:58.988Z,98.58
2023-04-02T02:33:28.922Z,97.86
2023-04-02T02:36:28.088Z,97.21
2023-04-02T02:39:22.390Z,97.08
2023-04-02T02:41:55.924Z,97.17
2023-04-02T02:44:27.189Z,97.26
2023-04-02T02:47:13.951Z,97.51
2023-04-02T02:49:45.124Z,97.21
2023-04-02T02:52:36.280Z,97.43
2023-04-02T02:55:17.640Z,97.35
2023-04-02T02:58:00.104Z,97.14
2023-04-02T03:00:32.063Z,97.65
2023-04-02T03:03:04.412Z,97.39
2023-04-02T03:05:32.330Z,97.79
2023-04-02T03:08:12.923Z,98.14
2023-04-02T03:10:53.106Z,98.24
2023-04-02T03:13:27.256Z,97.92
2023-04-02T03:16:09.700Z,97.50
2023-04-02T03:18:46.355Z,97.43
2023-04-02T03:21:32.005Z,97.05
2023-04-02T03:24:09.628Z,96.78
2023-04-02T03:26:50.468Z,96.80
2023-04-02T03:29:22.724Z,97.03
2023-04-02T03:32:01.960Z,96.87
2023-04-02T03:34:35.318Z,96.55
2023-04-02T03:37:22.732Z,95.99
2023-04-02T03:40:02.516Z,96.04
2023-04-02T03:42:41.965Z,95.92
2023-04-02T03:45:21.414Z,96.13
2023-04-02T03:48:01.068Z,96.42
2023-04-02T03:50:55.362Z,96.43
2023-04-02T03:53:28.197Z,96.45
2023-04-02T03:55:57.295Z,96.54
2023-04-02T03:58:30.853Z,96.39
2023-04-02T04:01:06.547Z,96.58
2023-04-02T04:03:36.740Z,96.97
2023-04-02T04:06:10.257Z,97.35
2023-04-02T04:08:54.793Z,97.12
2023-04-02T04:11:29.218Z,97.46
2023-04-02T04:13:58.599Z,98.03
2023-04-02T04:16:47.538Z,97.97
2023-04-02T04:19:22.423Z,98.42
2023-04-02T04:21:53.994Z,98.56
2023-04-02T04:24:25.903Z,98.63
2023-04-02T04:27:11.615Z,98.58
2023-04-02T04:29:54.234Z,98.98
2023-04-02T04:32:34.177Z,99.36
2023-04-02T04:35:26.740Z,99.27
2023-04-02T04:38:16.907Z,98.79
2023-04-02T04:40:53.846Z,98.32
2023-04-02T04:43:46.878Z,98.87
2023-04-02T04:46:32.913Z,99.01
2023-04-02T04:49:22.481Z,99.14
2023-04-02T04:52:26.903Z,99.50
2023-04-02T04:54:54.507Z,100.00
2023-04-02T04:57:36.916Z,100.00
2023-04-02T05:00:20.742Z,100.00
2023-04-02T05:03:04.039Z,100.00
2023-04-02T05:05:36.758Z,99.82
2023-04-02T05:08:13.731Z,99.15
2023-04-02T05:10:52.069Z,99.14
2023-04-02T05:13:31.683Z,98.96
2023-04-02T05:16:36.906Z,98.95
2023-04-02T05:19:14.985Z,99.24
2023-04-02T05:21:48.628Z,98.19
2023-04-02T05:24:43.019Z,97.78
2023-04-02T05:27:29.312Z,97.75
2023-04-02T05:30:04.757Z,97.32
2023-04-02T05:32:38.085Z,96.72
2023-04-02T05:35:06.804Z,96.92
2023-04-02T05:37:39.928Z,96.84
2023-04-02T05:40:19.964Z,96.43
2023-04-02T05:42:51.033Z,96.45
2023-04-02T05:45:40.312Z,96.48
2023-04-02T05:48:22.717Z,96.94
2023-04-02T05:50:54.511Z,97.34
2023-04-02T05:53:40.635Z,97.80
2023-04-02T05:56:11.585Z,97.81
2023-04-02T05:58:45.750Z,98.70
2023-04-02T06:01:47.255Z,98.73
2023-04-02T06:05:03.111Z,98.27
2023-04-02T06:07:41.897Z,98.06
2023-04-02T06:10:24.751Z,97.97
2023-04-02T06:13:04.849Z,97.57
2023-04-02T06:15:37.647Z,97.05
2023-04-02T06:18:24.047Z,96.56
2023-04-02T06:20:52.903Z,97.02
2023-04-02T06:23:31.377Z,96.77
2023-04-02T06:26:20.033Z,96.84
2023-04-02T06:29:13.195Z,96.62
2023-04-02T06:32:13.178Z,96.21
2023-04-02T06:34:43.782Z,96.10
2023-04-02T06:37:30.117Z,95.73
2023-04-02T06:40:40.532Z,95.16
2023-04-02T06:43:33.573Z,94.73
2023-04-02T06:46:36.265Z,94.60
2023-04-02T06:49:14.815Z,94.62
2023-04-02T06:51:44.481Z,94.25
2023-04-02T06:54:16.944Z,94.51
2023-04-02T06:56:49.869Z,94.18
2023-04-02T06:59:26.595Z,93.95
2023-04-02T07:02:23.329Z,94.38
2023-04-02T07:04:51.088Z,94.98
2023-04-02T07:07:19.485Z,94.26
2023-04-02T07:09:48.316Z,94.19
2023-04-02T07:12:15.455Z,93.97
2023-04-02T07:14:43.944Z,93.00
2023-04-02T07:17:19.201Z,92.58
2023-04-02T07:19:49.684Z,92.70
2023-04-02T07:22:19.551Z,92.13
2023-04-02T07:24:50.582Z,92.04
2023-04-02T07:27:17.680Z,91.46
2023-04-02T07:29:45.023Z,91.60
2023-04-02T07:32:34.470Z,92.22
2023-04-02T07:35:03.020Z,92.36
2023-04-02T07:37:30.138Z,92.71
2023-04-02T07:39:57.622Z,92.81
2023-04-02T07:42:24.723Z,93.05
2023-04-02T07:44:52.106Z,92.84
2023-04-02T07:47:19.127Z,92.53
2023-04-02T07:49:47.072Z,92.47
2023-04-02T07:52:13.987Z,91.87
2023-04-02T07:54:41.165Z,91.86
2023-04-02T07:57:08.267Z,92.31
2023-04-02T07:59:35.606Z,91.01
2023-04-02T08:02:02.949Z,91.46
2023-04-02T08:04:30.549Z,91.67
2023-04-02T08:06:57.447Z,91.50
2023-04-02T08:09:24.598Z,91.52
2023-04-02T08:11:51.526Z,90.38
2023-04-02T08:14:18.971Z,90.23
2023-04-02T08:16:52.076Z,88.96
2023-04-02T08:19:20.408Z,87.30
2023-04-02T08:21:50.648Z,88.06
2023-04-02T08:24:19.358Z,88.10
2023-04-02T08:26:48.218Z,88.87
2023-04-02T08:29:16.138Z,89.17
2023-04-02T08:31:43.181Z,89.53
2023-04-02T08:34:10.526Z,88.88
2023-04-02T08:36:41.864Z,88.26
2023-04-02T08:39:12.277Z,88.34
2023-04-02T08:41:50.417Z,88.74
2023-04-02T08:44:36.711Z,89.01
2023-04-02T08:47:09.608Z,89.08
2023-04-02T08:49:36.990Z,89.88
2023-04-02T08:52:04.307Z,89.26
2023-04-02T08:54:34.911Z,89.84
2023-04-02T08:57:05.126Z,90.31
2023-04-02T08:59:35.309Z,90.63
2023-04-02T09:02:08.086Z,90.70
2023-04-02T09:04:37.050Z,90.78
2023-04-02T09:07:04.553Z,90.78
2023-04-02T09:09:37.064Z,91.13
2023-04-02T09:12:04.690Z,91.16
2023-04-02T09:15:18.383Z,91.78
2023-04-02T09:17:53.518Z,91.53
2023-04-02T09:20:29.294Z,91.03
2023-04-02T09:22:57.307Z,91.76
2023-04-02T09:25:27.554Z,91.62
2023-04-02T09:27:57.142Z,90.51
2023-04-02T09:30:43.597Z,91.38
2023-04-02T09:33:11.304Z,89.97
2023-04-02T09:35:59.379Z,89.57
2023-04-02T09:38:33.310Z,89.42
2023-04-02T09:41:02.318Z,90.29
2023-04-02T09:43:39.192Z,90.45
2023-04-02T09:46:06.493Z,91.24
2023-04-02T09:48:39.243Z,91.12
2023-04-02T09:51:32.023Z,91.75
2023-04-02T09:54:02.064Z,91.84
2023-04-02T09:56:41.151Z,93.04
2023-04-02T09:59:18.842Z,92.26
2023-04-02T10:01:57.141Z,92.43
2023-04-02T10:04:36.560Z,92.84
2023-04-02T10:07:06.592Z,92.43
2023-04-02T10:09:37.391Z,91.52
2023-04-02T10:12:11.831Z,91.73
2023-04-02T10:14:46.040Z,91.45
2023-04-02T10:17:31.269Z,90.96
2023-04-02T10:20:30.662Z,92.19
2023-04-02T10:23:01.334Z,92.51
2023-04-02T10:25:36.268Z,91.96
2023-04-02T10:28:18.950Z,93.01
2023-04-02T10:30:54.349Z,93.34
2023-04-02T10:33:30.565Z,92.42
2023-04-02T10:36:05.235Z,92.72
2023-04-02T10:39:20.065Z,92.77
2023-04-02T10:42:21.499Z,92.64
2023-04-02T10:44:51.866Z,92.72
2023-04-02T10:47:27.260Z,91.91
2023-04-02T10:50:08.173Z,92.43
2023-04-02T10:52:56.622Z,92.69
2023-04-02T10:55:33.010Z,93.56
2023-04-02T10:58:08.305Z,93.08
2023-04-02T11:00:41.693Z,93.84
2023-04-02T11:03:24.202Z,94.52
2023-04-02T11:05:54.780Z,93.89
2023-04-02T11:08:37.034Z,93.52
2023-04-02T11:11:15.052Z,93.95
2023-04-02T11:13:57.004Z,94.51
2023-04-02T11:16:25.413Z,93.81
2023-04-02T11:19:17.519Z,93.75
2023-04-02T11:22:23.779Z,94.30
2023-04-02T11:24:53.453Z,94.60
2023-04-02T11:27:28.417Z,95.28
2023-04-02T11:30:24.549Z,94.80
2023-04-02T11:32:51.954Z,95.10
2023-04-02T11:35:22.398Z,94.15
2023-04-02T11:37:50.036Z,94.50
2023-04-02T11:40:17.024Z,94.71
2023-04-02T11:42:49.001Z,95.46
2023-04-02T11:45:27.997Z,94.21
2023-04-02T11:48:01.542Z,93.35
2023-04-02T11:50:38.074Z,93.32
2023-04-02T11:53:11.673Z,93.45
2023-04-02T11:55:43.660Z,93.75
2023-04-02T11:58:30.195Z,94.04
2023-04-02T12:01:09.294Z,95.98
2023-04-02T12:03:52.380Z,96.04
2023-04-02T12:06:39.914Z,95.61
2023-04-02T12:09:26.039Z,95.50
2023-04-02T12:11:56.748Z,95.10
2023-04-02T12:14:36.363Z,94.72
2023-04-02T12:17:13.744Z,95.40
2023-04-02T12:19:41.337Z,96.81
2023-04-02T12:22:19.932Z,95.58
2023-04-02T12:24:49.464Z,96.18
2023-04-02T12:27:28.024Z,95.53
2023-04-02T12:30:11.928Z,95.47
2023-04-02T12:32:39.423Z,95.76
2023-04-02T12:35:08.408Z,97.13
2023-04-02T12:37:35.490Z,97.74
2023-04-02T12:40:15.912Z,97.73
2023-04-02T12:42:43.454Z,95.98
2023-04-02T12:45:27.938Z,95.75
2023-04-02T12:47:57.772Z,95.32
2023-04-02T12:50:25.748Z,95.53
2023-04-02T12:52:55.169Z,95.05
2023-04-02T12:55:25.560Z,95.20
2023-04-02T12:57:57.775Z,94.48
2023-04-02T13:00:25.198Z,95.21
2023-04-02T13:03:01.218Z,94.62
2023-04-02T13:05:42.811Z,93.51
2023-04-02T13:08:33.237Z,94.41
2023-04-02T13:11:02.989Z,94.03
2023-04-02T13:13:34.852Z,94.83
2023-04-02T13:16:24.095Z,94.75
2023-04-02T13:18:51.550Z,95.54
2023-04-02T13:21:29.726Z,93.99
2023-04-02T13:23:56.878Z,95.28
2023-04-02T13:26:26.395Z,95.52
2023-04-02T13:28:57.169Z,95.29
2023-04-02T13:31:24.604Z,95.84
2023-04-02T13:33:51.822Z,94.20
2023-04-02T13:36:19.067Z,93.86
2023-04-02T13:38:46.008Z,94.12
2023-04-02T13:41:21.528Z,94.60
2023-04-02T13:43:50.832Z,95.01
2023-04-02T13:46:23.784Z,94.22
2023-04-02T13:48:52.279Z,94.96
2023-04-02T13:51:22.737Z,94.09
2023-04-02T13:53:55.493Z,93.92
2023-04-02T13:56:24.741Z,93.95
2023-04-02T13:58:52.318Z,94.33
2023-04-02T14:01:22.165Z,95.61
2023-04-02T14:03:49.353Z,96.64
2023-04-02T14:06:44.028Z,96.13
2023-04-02T14:09:37.404Z,96.45
2023-04-02T14:12:20.453Z,96.81
2023-04-02T14:15:14.792Z,98.21
2023-04-02T14:18:13.882Z,97.47
2023-04-02T14:20:46.992Z,95.90
2023-04-02T14:23:51.351Z,96.48
2023-04-02T14:26:39.731Z,97.27
2023-04-02T14:29:16.607Z,97.62
2023-04-02T14:31:51.493Z,97.46
2023-04-02T14:34:51.739Z,98.95
2023-04-02T14:37:33.734Z,99.17
2023-04-02T14:40:26.320Z,100.00
2023-04-02T14:43:00.267Z,100.00
2023-04-02T14:46:05.345Z,100.00
2023-04-02T14:48:51.348Z,100.00
2023-04-02T14:51:18.774Z,99.96
2023-04-02T14:53:54.842Z,100.00
2023-04-02T14:56:24.766Z,100.00
2023-04-02T14:59:05.573Z,100.00
2023-04-02T15:01:41.377Z,100.00
2023-04-02T15:04:15.265Z,100.00
2023-04-02T15:06:52.995Z,100.00
2023-04-02T15:09:32.293Z,100.00
2023-04-02T15:12:11.221Z,100.00
2023-04-02T15:15:33.090Z,100.00
2023-04-02T15:18:11.104Z,100.00
2023-04-02T15:20:47.658Z,100.00
2023-04-02T15:23:34.409Z,100.00
2023-04-02T15:26:12.822Z,100.00
2023-04-02T15:29:09.302Z,100.00
2023-04-02T15:31:46.105Z,100.00
2023-04-02T15:34:26.621Z,100.00
2023-04-02T15:37:05.805Z,100.00
2023-04-02T15:39:45.980Z,100.00
2023-04-02T15:42:23.958Z,100.00
2023-04-02T15:45:17.825Z,100.00
2023-04-02T15:47:53.579Z,100.00
2023-04-02T15:50:40.407Z,100.00
2023-04-02T15:53:17.120Z,100.00
2023-04-02T15:55:54.561Z,100.00
2023-04-02T15:58:35.567Z,100.00
2023-04-02T16:01:26.333Z,100.00
2023-04-02T16:04:19.582Z,100.00
2023-04-02T16:07:21.545Z,100.00
2023-04-02T16:10:16.559Z,100.00
2023-04-02T16:12:46.665Z,100.00
2023-04-02T16:15:23.570Z,100.00
2023-04-02T16:18:01.740Z,100.00
2023-04-02T16:20:37.074Z,100.00
2023-04-02T16:23:14.771Z,100.00
2023-04-02T16:25:56.426Z,100.00
2023-04-02T16:28:28.700Z,100.00
2023-04-02T16:31:07.954Z,100.00
2023-04-02T16:33:54.443Z,100.00
2023-04-02T16:36:35.740Z,100.00
2023-04-02T16:39:19.289Z,100.00
2023-04-02T16:42:01.264Z,100.00
2023-04-02T16:44:31.339Z,100.00
2023-04-02T16:47:16.942Z,100.00
2023-04-02T16:50:18.960Z,100.00
2023-04-02T16:53:00.034Z,100.00
2023-04-02T16:56:09.915Z,100.00
2023-04-02T16:58:54.912Z,100.00
2023-04-02T17:01:27.952Z,100.00
2023-04-02T17:04:08.825Z,100.00
2023-04-02T17:06:37.566Z,100.00
2023-04-02T17:09:24.837Z,100.00
2023-04-02T17:12:04.364Z,100.00
2023-04-02T17:14:36.890Z,100.00
2023-04-02T17:17:05.205Z,100.00
2023-04-02T17:19:33.031Z,100.00
2023-04-02T17:22:05.273Z,100.00
2023-04-02T17:24:38.865Z,100.00
2023-04-02T17:27:17.965Z,100.00
2023-04-02T17:29:51.445Z,100.00
2023-04-02T17:32:33.181Z,100.00
2023-04-02T17:35:22.567Z,100.00
2023-04-02T17:38:08.334Z,100.00
2023-04-02T17:40:41.002Z,100.00
2023-04-02T17:43:27.032Z,100.00
2023-04-02T17:46:05.004Z,100.00
2023-04-02T17:48:47.497Z,100.00
2023-04-02T17:51:30.038Z,100.00
2023-04-02T17:54:12.630Z,100.00
2023-04-02T17:57:06.976Z,100.00
2023-04-02T17:59:58.340Z,100.00
2023-04-02T18:02:43.567Z,100.00
2023-04-02T18:05:32.257Z,100.00
2023-04-02T18:08:22.920Z,100.00
2023-04-02T18:11:04.182Z,100.00
2023-04-02T18:13:36.130Z,100.00
2023-04-02T18:16:18.144Z,100.00
2023-04-02T18:19:03.690Z,99.20
2023-04-02T18:22:00.796Z,99.45
2023-04-02T18:24:44.006Z,99.10
2023-04-02T18:27:14.524Z,99.12
2023-04-02T18:30:04.213Z,98.48
2023-04-02T18:32:34.531Z,98.92
2023-04-02T18:35:13.289Z,98.90
2023-04-02T18:38:05.728Z,98.68
2023-04-02T18:40:57.894Z,97.89
2023-04-02T18:43:43.640Z,97.59
2023-04-02T18:46:40.508Z,98.01
2023-04-02T18:49:26.763Z,97.49
2023-04-02T18:52:01.400Z,96.39
2023-04-02T18:54:36.221Z,96.78
2023-04-02T18:57:14.748Z,96.04
2023-04-02T18:59:51.399Z,96.00
2023-04-02T19:02:34.817Z,95.61
2023-04-02T19:05:06.572Z,95.97
2023-04-02T19:07:38.922Z,96.08
2023-04-02T19:10:23.980Z,96.32
2023-04-02T19:12:51.390Z,95.38
2023-04-02T19:15:21.327Z,95.17
2023-04-02T19:18:08.563Z,95.42
2023-04-02T19:20:55.645Z,95.68
2023-04-02T19:23:34.763Z,95.72
2023-04-02T19:26:32.788Z,96.18
2023-04-02T19:29:18.544Z,96.13
2023-04-02T19:31:56.341Z,96.63
2023-04-02T19:34:34.516Z,94.47
2023-04-02T19:37:11.268Z,93.57
2023-04-02T19:39:59.596Z,93.29
2023-04-02T19:42:42.202Z,92.58
2023-04-02T19:45:21.964Z,92.18
2023-04-02T19:47:49.473Z,92.77
2023-04-02T19:50:16.404Z,92.35
2023-04-02T19:52:43.857Z,91.82
2023-04-02T19:55:10.946Z,92.55
2023-04-02T19:57:38.369Z,92.34
2023-04-02T20:00:06.691Z,90.82
2023-04-02T20:02:39.820Z,89.85
2023-04-02T20:05:07.832Z,90.53
2023-04-02T20:07:35.036Z,90.37
2023-04-02T20:10:02.050Z,90.62
2023-04-02T20:12:29.419Z,90.28
2023-04-02T20:14:56.517Z,90.09
2023-04-02T20:17:23.844Z,90.23
2023-04-02T20:19:51.009Z,89.80
2023-04-02T20:22:19.146Z,88.80
2023-04-02T20:24:46.261Z,89.19
2023-04-02T20:27:13.473Z,88.66
2023-04-02T20:29:42.351Z,89.17
2023-04-02T20:32:09.961Z,87.42
2023-04-02T20:34:36.946Z,87.79
2023-04-02T20:37:04.373Z,86.48
2023-04-02T20:39:31.369Z,84.48
2023-04-02T20:42:02.441Z,84.57
2023-04-02T20:44:29.749Z,83.19
2023-04-02T20:46:57.028Z,82.01
2023-04-02T20:49:23.924Z,79.68
2023-04-02T20:51:51.245Z,78.37
2023-04-02T20:54:18.689Z,77.96
2023-04-02T20:56:46.390Z,77.31
2023-04-02T20:59:13.357Z,76.72
2023-04-02T21:01:40.724Z,77.73
2023-04-02T21:04:07.822Z,77.21
2023-04-02T21:06:38.043Z,76.22
2023-04-02T21:09:14.579Z,75.63
2023-04-02T21:11:42.747Z,75.49
2023-04-02T21:14:10.406Z,74.21
2023-04-02T21:16:39.814Z,72.80
2023-04-02T21:19:09.052Z,72.70
2023-04-02T21:21:38.717Z,73.19
2023-04-02T21:24:08.057Z,70.67
2023-04-02T21:26:38.755Z,69.83
2023-04-02T21:29:06.389Z,70.02
2023-04-02T21:31:36.528Z,70.68
2023-04-02T21:34:04.450Z,68.56
2023-04-02T21:36:37.577Z,67.91
2023-04-02T21:39:10.612Z,68.62
2023-04-02T21:41:41.753Z,69.30
2023-04-02T21:44:10.275Z,67.84
2023-04-02T21:46:39.167Z,66.84
2023-04-02T21:49:08.528Z,66.49
2023-04-02T21:51:37.600Z,66.68
2023-04-02T21:54:04.955Z,66.78
2023-04-02T21:56:34.698Z,67.08
2023-04-02T21:59:02.260Z,66.80
2023-04-02T22:01:33.771Z,67.23
2023-04-02T22:04:02.836Z,68.26
2023-04-02T22:06:32.349Z,67.35
2023-04-02T22:09:01.651Z,67.50
2023-04-02T22:11:31.783Z,66.70
2023-04-02T22:13:59.455Z,67.18
2023-04-02T22:16:29.953Z,65.94
2023-04-02T22:19:01.032Z,66.03
2023-04-02T22:21:30.477Z,66.15
2023-04-02T22:24:01.555Z,66.41
2023-04-02T22:26:29.708Z,67.63
2023-04-02T22:28:56.723Z,66.80
2023-04-02T22:31:26.323Z,67.39
2023-04-02T22:33:54.906Z,66.75
2023-04-02T22:36:23.758Z,67.07
2023-04-02T22:38:51.007Z,67.18
2023-04-02T22:41:20.048Z,67.33
2023-04-02T22:43:47.602Z,67.13
2023-04-02T22:46:17.231Z,67.08
2023-04-02T22:48:45.800Z,66.83
2023-04-02T22:51:14.899Z,66.93
2023-04-02T22:53:43.146Z,67.23
2023-04-02T22:56:14.405Z,67.13
2023-04-02T22:58:41.717Z,66.89
2023-04-02T23:01:10.596Z,66.38
2023-04-02T23:03:38.036Z,66.94
2023-04-02T23:06:08.158Z,66.63
2023-04-02T23:08:36.434Z,66.15
2023-04-02T23:11:16.590Z,66.52
2023-04-02T23:13:44.690Z,64.37
2023-04-02T23:16:15.642Z,64.58
2023-04-02T23:18:45.783Z,65.02
2023-04-02T23:21:13.141Z,65.61
2023-04-02T23:23:40.394Z,65.65
2023-04-02T23:26:07.717Z,65.92
2023-04-02T23:28:37.241Z,65.93
2023-04-02T23:31:06.898Z,67.12
2023-04-02T23:33:34.949Z,66.85
2023-04-02T23:36:15.014Z,66.05
2023-04-02T23:38:42.172Z,66.22
2023-04-02T23:41:14.771Z,66.25
2023-04-02T23:43:42.365Z,66.24
2023-04-02T23:46:10.222Z,65.91
2023-04-02T23:48:37.432Z,64.81
2023-04-02T23:51:06.112Z,65.43
2023-04-02T23:53:34.544Z,65.84
2023-04-02T23:56:02.134Z,65.76
2023-04-02T23:58:29.751Z,65.86
